Time;durP1;ratioP1;P1;durP2;ratioP2;P2;SDS_P1;SDS_P2;PMS_P1;PMS_P2;Temp;Humidity;BMP_temperature;BMP_pressure;BME280_temperature;BME280_humidity;BME280_pressure;Samples;Min_cycle;Max_cycle;Signal;HPM_P1;HPM_P2
2023/06/16 00:00:55;;;;;;;17.05;11.90;;;19.80;99.90;;;;;;5091715;28;20055;-69
2023/06/16 00:03:59;;;;;;;16.48;11.73;;;19.70;99.90;;;;;;5091552;28;20039;-69
2023/06/16 00:07:03;;;;;;;21.38;11.57;;;19.70;99.90;;;;;;5091508;28;20059;-69
2023/06/16 00:10:08;;;;;;;14.65;11.30;;;19.60;99.90;;;;;;5091744;28;20412;-69
2023/06/16 00:13:12;;;;;;;13.18;11.68;;;19.70;99.90;;;;;;5091464;28;20119;-69
2023/06/16 00:16:19;;;;;;;16.25;11.32;;;19.70;99.90;;;;;;5091053;28;20051;-69
2023/06/16 00:19:28;;;;;;;12.63;10.73;;;19.60;99.90;;;;;;5091369;28;20055;-69
2023/06/16 00:22:34;;;;;;;19.67;11.60;;;19.60;99.90;;;;;;5090858;28;20044;-69
2023/06/16 00:25:38;;;;;;;16.10;11.00;;;19.70;99.90;;;;;;5091345;28;20515;-69
2023/06/16 00:28:42;;;;;;;13.90;11.52;;;19.70;99.90;;;;;;5090990;28;20043;-69
2023/06/16 00:31:46;;;;;;;16.15;12.13;;;19.70;99.90;;;;;;5090989;28;20404;-69
2023/06/16 00:34:50;;;;;;;15.98;11.90;;;19.70;99.90;;;;;;5079054;28;20043;-69
2023/06/16 00:37:54;;;;;;;17.42;12.23;;;19.60;99.90;;;;;;5091193;28;20043;-69
2023/06/16 00:41:00;;;;;;;16.00;12.18;;;19.50;99.90;;;;;;5091032;28;20047;-69
2023/06/16 00:44:04;;;;;;;18.90;11.90;;;19.50;99.90;;;;;;5091264;28;20043;-69
2023/06/16 00:47:08;;;;;;;16.05;11.90;;;19.50;99.90;;;;;;5078129;28;20514;-69
2023/06/16 00:50:12;;;;;;;16.58;12.82;;;19.50;99.90;;;;;;5090953;28;20285;-69
2023/06/16 00:53:16;;;;;;;16.83;12.43;;;19.50;99.90;;;;;;5090814;28;20035;-69
2023/06/16 00:56:22;;;;;;;18.98;12.35;;;19.50;99.90;;;;;;5078402;28;20515;-69
2023/06/16 00:59:27;;;;;;;15.98;12.50;;;19.50;99.90;;;;;;5090682;28;20063;-69
2023/06/16 01:02:30;;;;;;;19.58;12.88;;;19.60;99.90;;;;;;5091477;28;20376;-69
2023/06/16 01:05:35;;;;;;;17.25;12.52;;;19.60;99.90;;;;;;5090678;28;20051;-69
2023/06/16 01:08:46;;;;;;;16.05;12.60;;;19.50;99.90;;;;;;5090744;28;20047;-69
2023/06/16 01:12:24;;;;;;;19.15;12.68;;;19.40;99.90;;;;;;5090575;28;20403;-69
2023/06/16 01:15:31;;;;;;;19.30;13.05;;;19.30;99.90;;;;;;5077910;28;20039;-70
2023/06/16 01:18:37;;;;;;;18.80;13.68;;;19.20;99.90;;;;;;5078154;28;20047;-69
2023/06/16 01:21:53;;;;;;;17.33;11.98;;;19.20;99.90;;;;;;5090524;28;20043;-69
2023/06/16 01:24:59;;;;;;;17.90;13.50;;;19.20;99.90;;;;;;5078331;28;20055;-70
2023/06/16 01:28:07;;;;;;;16.27;13.00;;;19.20;99.90;;;;;;5078554;28;20043;-69
2023/06/16 01:31:15;;;;;;;20.90;13.45;;;19.20;99.90;;;;;;5094351;28;20051;-70
2023/06/16 01:34:20;;;;;;;19.35;13.10;;;19.30;99.90;;;;;;5094707;28;20047;-69
2023/06/16 01:37:25;;;;;;;18.02;12.18;;;19.20;99.90;;;;;;5094563;28;20051;-69
2023/06/16 01:40:30;;;;;;;19.85;12.88;;;19.10;99.90;;;;;;5082083;28;20395;-70
2023/06/16 01:43:37;;;;;;;20.20;12.98;;;19.00;99.90;;;;;;5081984;28;20039;-69
2023/06/16 01:46:42;;;;;;;17.77;13.15;;;19.10;99.90;;;;;;5094268;28;20039;-69
2023/06/16 01:49:48;;;;;;;19.15;13.38;;;19.10;99.90;;;;;;5094367;28;20043;-69
2023/06/16 01:52:53;;;;;;;17.38;12.68;;;19.00;99.90;;;;;;5081433;28;20051;-69
2023/06/16 01:55:56;;;;;;;15.65;12.85;;;19.00;99.90;;;;;;5094386;28;20039;-68
2023/06/16 01:59:00;;;;;;;18.38;12.85;;;19.00;99.90;;;;;;5081172;28;20051;-69
2023/06/16 02:02:11;;;;;;;19.23;11.95;;;19.00;99.90;;;;;;5081472;28;20491;-68
2023/06/16 02:05:20;;;;;;;14.18;12.13;;;18.90;99.90;;;;;;5094038;28;20036;-69
2023/06/16 02:08:25;;;;;;;17.50;12.20;;;18.90;99.90;;;;;;5094075;28;20055;-68
2023/06/16 02:11:30;;;;;;;16.63;12.50;;;18.90;99.90;;;;;;5093664;28;20043;-71
2023/06/16 02:14:35;;;;;;;16.40;11.93;;;18.90;99.90;;;;;;5094146;28;20047;-69
2023/06/16 02:17:45;;;;;;;19.92;11.90;;;18.90;99.90;;;;;;5080902;28;20047;-70
2023/06/16 02:20:49;;;;;;;15.33;11.73;;;18.80;99.90;;;;;;5081522;28;20071;-70
2023/06/16 02:23:53;;;;;;;17.58;12.38;;;18.90;99.90;;;;;;5093651;28;20047;-69
2023/06/16 02:26:57;;;;;;;21.17;11.52;;;18.90;99.90;;;;;;5093837;28;20066;-70
2023/06/16 02:30:02;;;;;;;15.48;11.93;;;19.00;99.90;;;;;;5093794;28;20051;-70
2023/06/16 02:33:07;;;;;;;14.88;11.63;;;19.00;99.90;;;;;;5080924;28;20059;-69
2023/06/16 02:36:11;;;;;;;18.15;11.45;;;19.00;99.90;;;;;;5081064;28;20059;-69
2023/06/16 02:39:15;;;;;;;20.73;11.02;;;19.00;99.90;;;;;;5080399;28;20051;-69
2023/06/16 02:42:19;;;;;;;17.85;11.45;;;19.00;99.90;;;;;;5093278;28;20051;-68
2023/06/16 02:45:23;;;;;;;16.58;10.60;;;18.90;99.90;;;;;;5080650;28;20539;-68
2023/06/16 02:48:27;;;;;;;15.55;10.82;;;19.00;99.90;;;;;;5093417;28;20516;-68
2023/06/16 02:51:34;;;;;;;16.20;11.23;;;19.00;99.90;;;;;;5080474;28;20043;-69
2023/06/16 02:54:39;;;;;;;12.18;10.68;;;18.90;99.90;;;;;;5080638;28;20154;-69
2023/06/16 02:57:44;;;;;;;16.63;10.95;;;18.90;99.90;;;;;;5080436;28;20043;-69
2023/06/16 03:00:48;;;;;;;15.15;10.60;;;18.90;99.90;;;;;;5080273;28;20047;-68
2023/06/16 03:04:03;;;;;;;13.73;11.05;;;18.80;99.90;;;;;;5080476;28;20280;-69
2023/06/16 03:07:17;;;;;;;16.02;11.23;;;18.80;99.90;;;;;;5092149;28;20530;-69
2023/06/16 03:10:22;;;;;;;16.20;11.90;;;18.80;99.90;;;;;;5091994;28;20043;-69
2023/06/16 03:13:48;;;;;;;19.60;11.48;;;18.70;99.90;;;;;;5080417;28;20070;-69
2023/06/16 03:16:55;;;;;;;16.08;11.52;;;18.60;99.90;;;;;;5079995;28;20063;-68
2023/06/16 03:20:04;;;;;;;16.90;12.32;;;18.20;99.90;;;;;;5080040;28;20055;-68
2023/06/16 03:23:16;;;;;;;18.35;12.40;;;;;;;;;;5079916;28;20047;-70
2023/06/16 03:26:22;;;;;;;20.38;12.85;;;18.10;99.90;;;;;;5092265;28;20043;-69
2023/06/16 03:29:44;;;;;;;15.85;11.75;;;18.10;99.90;;;;;;5079533;28;20388;-69
2023/06/16 03:32:49;;;;;;;21.63;11.77;;;18.10;99.90;;;;;;5079835;28;20424;-69
2023/06/16 03:35:53;;;;;;;17.58;11.98;;;18.10;99.90;;;;;;5091617;28;20049;-68
2023/06/16 03:39:07;;;;;;;18.10;11.88;;;18.10;99.90;;;;;;5079586;28;20059;-69
2023/06/16 03:42:13;;;;;;;13.43;11.23;;;19.30;99.90;;;;;;5079506;28;20063;-69
2023/06/16 03:45:17;;;;;;;15.85;11.48;;;18.20;99.90;;;;;;5079582;28;20399;-70
2023/06/16 03:48:21;;;;;;;14.95;12.23;;;18.40;99.90;;;;;;5091176;28;20085;-68
2023/06/16 03:51:33;;;;;;;19.80;11.98;;;18.30;99.90;;;;;;5078524;28;20055;-69
2023/06/16 03:54:37;;;;;;;16.98;12.02;;;18.30;99.90;;;;;;5079343;28;20043;-69
2023/06/16 03:57:41;;;;;;;18.73;12.45;;;18.20;99.90;;;;;;5079446;28;20400;-69
2023/06/16 04:00:45;;;;;;;20.60;11.70;;;18.20;99.90;;;;;;5091213;28;20059;-69
2023/06/16 04:03:51;;;;;;;15.90;11.68;;;18.20;99.90;;;;;;5068010;28;20051;-69
2023/06/16 04:06:55;;;;;;;15.18;11.10;;;18.50;99.90;;;;;;5091550;28;20051;-69
2023/06/16 04:10:00;;;;;;;18.48;11.25;;;18.50;99.90;;;;;;5079172;28;20039;-69
2023/06/16 04:13:04;;;;;;;14.63;11.15;;;18.70;99.90;;;;;;5091209;28;20051;-70
2023/06/16 04:16:12;;;;;;;18.67;11.73;;;18.80;99.90;;;;;;5091653;28;20043;-69
2023/06/16 04:19:19;;;;;;;14.55;10.50;;;19.90;99.90;;;;;;5078887;28;20046;-69
2023/06/16 04:22:23;;;;;;;15.27;10.68;;;18.80;99.90;;;;;;5090709;28;20550;-69
2023/06/16 04:25:31;;;;;;;18.00;11.35;;;18.90;99.90;;;;;;5078762;28;20039;-68
2023/06/16 04:28:43;;;;;;;15.55;11.60;;;18.90;99.90;;;;;;5091691;28;20047;-69
2023/06/16 04:31:51;;;;;;;15.80;11.57;;;18.90;99.90;;;;;;5078555;28;20055;-69
2023/06/16 04:34:57;;;;;;;13.73;12.10;;;18.80;99.90;;;;;;5078491;28;20426;-70
2023/06/16 04:38:02;;;;;;;20.30;12.02;;;18.90;99.90;;;;;;5078684;28;20043;-70
2023/06/16 04:41:07;;;;;;;17.67;10.80;;;19.30;99.90;;;;;;5078590;28;20110;-69
2023/06/16 04:44:11;;;;;;;13.25;11.00;;;19.70;99.90;;;;;;5078316;28;20039;-69
2023/06/16 04:47:17;;;;;;;16.42;11.95;;;20.00;99.90;;;;;;5078810;28;20051;-70
2023/06/16 04:50:22;;;;;;;14.57;12.60;;;20.00;99.90;;;;;;5090283;28;20043;-71
2023/06/16 04:53:27;;;;;;;25.13;15.50;;;20.10;99.90;;;;;;5078468;28;20039;-69
2023/06/16 04:56:31;;;;;;;14.73;11.93;;;20.20;99.90;;;;;;5090717;28;20055;-69
2023/06/16 04:59:36;;;;;;;15.27;10.73;;;20.20;99.90;;;;;;5078128;28;20502;-69
2023/06/16 05:02:40;;;;;;;22.13;13.68;;;20.40;99.90;;;;;;5078557;28;20160;-69
2023/06/16 05:05:44;;;;;;;17.73;11.15;;;20.70;99.90;;;;;;5089790;28;20035;-69
2023/06/16 05:08:49;;;;;;;18.30;12.27;;;20.90;99.90;;;;;;5078227;28;20055;-70
2023/06/16 05:11:54;;;;;;;13.98;11.10;;;21.00;99.90;;;;;;5078152;28;20047;-72
2023/06/16 05:14:58;;;;;;;19.02;11.73;;;21.30;99.90;;;;;;5078561;28;20075;-77
2023/06/16 05:18:02;;;;;;;15.65;11.80;;;21.50;99.90;;;;;;5078591;28;20051;-80
2023/06/16 05:21:06;;;;;;;15.63;9.85;;;21.60;99.40;;;;;;5078430;28;20055;-82
2023/06/16 05:24:09;;;;;;;14.63;11.45;;;21.80;98.70;;;;;;5089783;28;20035;-82
2023/06/16 05:27:13;;;;;;;14.70;10.43;;;22.00;98.70;;;;;;5078376;28;20067;-80
2023/06/16 05:30:17;;;;;;;12.23;10.48;;;22.30;98.70;;;;;;5090534;28;20063;-80
2023/06/16 05:33:21;;;;;;;17.00;10.57;;;22.60;98.10;;;;;;5066979;28;20047;-83
2023/06/16 05:36:25;;;;;;;12.95;10.88;;;22.70;97.60;;;;;;5078388;28;20511;-82
2023/06/16 05:39:29;;;;;;;19.17;11.52;;;22.80;98.00;;;;;;5078406;28;20114;-79
2023/06/16 05:42:33;;;;;;;19.55;11.32;;;23.10;98.10;;;;;;5090910;28;20606;-81
2023/06/16 05:45:38;;;;;;;16.33;10.88;;;23.40;97.40;;;;;;5090027;28;20043;-81
2023/06/16 05:48:42;;;;;;;20.48;11.45;;;23.60;97.60;;;;;;5078287;28;20039;-79
2023/06/16 05:51:47;;;;;;;16.13;10.43;;;23.80;97.60;;;;;;5078176;28;20051;-82
2023/06/16 05:54:51;;;;;;;23.30;10.38;;;23.90;97.40;;;;;;5089956;28;20035;-81
2023/06/16 05:58:02;;;;;;;21.17;11.88;;;24.00;97.80;;;;;;5078306;28;20050;-79
2023/06/16 06:01:07;;;;;;;15.05;10.82;;;24.20;97.60;;;;;;5078527;28;20495;-82
2023/06/16 06:04:13;;;;;;;21.00;11.27;;;24.30;97.30;;;;;;5078571;28;20570;-81
2023/06/16 06:07:17;;;;;;;19.38;10.80;;;24.30;97.40;;;;;;5078072;28;20043;-82
2023/06/16 06:10:21;;;;;;;14.18;10.38;;;24.50;97.00;;;;;;5089622;28;20067;-79
2023/06/16 06:13:26;;;;;;;14.98;9.73;;;24.60;97.20;;;;;;5077840;28;20043;-80
2023/06/16 06:16:31;;;;;;;22.17;9.85;;;24.80;96.80;;;;;;5081937;28;20051;-80
2023/06/16 06:19:35;;;;;;;12.63;8.60;;;25.10;96.40;;;;;;5094404;28;20059;-76
2023/06/16 06:22:40;;;;;;;13.70;7.70;;;25.40;95.10;;;;;;5081626;28;20047;-79
2023/06/16 06:25:45;;;;;;;13.07;8.15;;;25.70;94.30;;;;;;5081691;28;20051;-83
2023/06/16 06:28:53;;;;;;;15.07;8.77;;;25.90;94.40;;;;;;5093612;28;20043;-74
2023/06/16 06:31:57;;;;;;;17.73;8.57;;;26.00;94.30;;;;;;5080753;28;20063;-70
2023/06/16 06:35:01;;;;;;;13.30;7.10;;;25.90;94.10;;;;;;5081155;28;20047;-81
2023/06/16 06:38:06;;;;;;;11.30;6.78;;;26.10;92.80;;;;;;5081153;28;20573;-79
2023/06/16 06:41:11;;;;;;;10.52;6.47;;;26.30;92.40;;;;;;5081177;28;20101;-78
2023/06/16 06:44:15;;;;;;;17.95;6.57;;;26.50;91.20;;;;;;5092471;28;20039;-79
2023/06/16 06:47:25;;;;;;;14.57;6.37;;;26.50;91.00;;;;;;5080981;28;20535;-79
2023/06/16 06:50:34;;;;;;;13.30;5.72;;;26.70;90.60;;;;;;5080930;28;20269;-83
2023/06/16 06:53:39;;;;;;;12.70;5.05;;;27.00;90.10;;;;;;5080975;28;20051;-81
2023/06/16 06:56:43;;;;;;;13.18;5.85;;;27.20;90.00;;;;;;5093323;28;20467;-76
2023/06/16 06:59:47;;;;;;;10.80;5.50;;;27.40;89.10;;;;;;5092782;28;20051;-73
2023/06/16 07:02:51;;;;;;;9.30;5.53;;;27.50;87.00;;;;;;5080251;28;20043;-71
2023/06/16 07:05:55;;;;;;;7.18;5.35;;;27.60;86.00;;;;;;5092958;28;20047;-75
2023/06/16 07:08:58;;;;;;;9.30;4.85;;;27.60;85.70;;;;;;5093173;28;20047;-79
2023/06/16 07:12:03;;;;;;;8.95;5.00;;;27.70;85.00;;;;;;5092964;28;20051;-77
2023/06/16 07:15:07;;;;;;;9.98;4.32;;;27.70;82.50;;;;;;5092713;28;20043;-76
2023/06/16 07:18:11;;;;;;;8.98;4.10;;;27.70;81.30;;;;;;5092860;28;20047;-85
2023/06/16 07:21:15;;;;;;;12.05;4.22;;;27.90;81.10;;;;;;5093397;28;20122;-83
2023/06/16 07:24:19;;;;;;;12.73;4.20;;;28.00;80.70;;;;;;5092803;28;20043;-72
2023/06/16 07:27:24;;;;;;;11.43;3.67;;;28.20;79.10;;;;;;5078915;28;20051;-74
2023/06/16 07:30:28;;;;;;;4.85;3.90;;;28.20;78.70;;;;;;5092198;28;20305;-82
2023/06/16 07:33:32;;;;;;;9.98;4.28;;;28.40;78.00;;;;;;5092533;28;20059;-84
2023/06/16 07:36:38;;;;;;;8.65;3.70;;;28.40;77.30;;;;;;5080463;28;20039;-79
2023/06/16 07:39:41;;;;;;;6.32;3.63;;;28.30;78.10;;;;;;5092613;28;20055;-82
2023/06/16 07:42:45;;;;;;;4.72;3.38;;;28.50;79.10;;;;;;5092409;28;20499;-78
2023/06/16 07:45:51;;;;;;;5.03;3.50;;;28.70;76.40;;;;;;5092437;28;20411;-88
2023/06/16 07:48:55;;;;;;;7.13;3.60;;;29.00;75.70;;;;;;5092486;28;20072;-77
2023/06/16 07:51:59;;;;;;;10.10;3.90;;;28.90;74.40;;;;;;5093381;28;20055;-74
2023/06/16 07:55:03;;;;;;;9.77;3.40;;;28.90;71.70;;;;;;5092363;28;20059;-86
2023/06/16 07:58:07;;;;;;;9.52;3.55;;;28.80;73.10;;;;;;5092323;28;20047;-78
2023/06/16 08:01:12;;;;;;;5.82;3.40;;;29.00;71.50;;;;;;5091882;28;20055;-83
2023/06/16 08:04:15;;;;;;;7.85;3.63;;;29.00;71.60;;;;;;5091995;28;20047;-75
2023/06/16 08:07:19;;;;;;;6.00;3.30;;;29.00;72.00;;;;;;5091828;28;20043;-69
2023/06/16 08:10:25;;;;;;;8.30;3.50;;;29.00;74.20;;;;;;5089913;28;20055;-71
2023/06/16 08:13:29;;;;;;;5.80;3.13;;;29.30;74.20;;;;;;5088722;28;20047;-69
2023/06/16 08:16:33;;;;;;;7.38;3.20;;;29.40;72.00;;;;;;5078112;28;20047;-69
2023/06/16 08:19:37;;;;;;;10.00;2.63;;;29.40;71.10;;;;;;5091399;28;20051;-70
2023/06/16 08:22:40;;;;;;;3.67;3.25;;;29.50;71.90;;;;;;5091318;28;20047;-68
2023/06/16 08:25:45;;;;;;;3.85;3.00;;;29.50;71.60;;;;;;5091735;28;20047;-69
2023/06/16 08:28:50;;;;;;;5.97;3.22;;;29.50;71.20;;;;;;5091570;28;20197;-70
2023/06/16 08:31:54;;;;;;;6.78;3.00;;;29.50;70.90;;;;;;5090736;28;20267;-69
2023/06/16 08:34:58;;;;;;;4.70;2.90;;;29.40;71.30;;;;;;5078673;28;20538;-71
2023/06/16 08:38:02;;;;;;;6.22;3.38;;;29.30;70.60;;;;;;5091022;28;20059;-68
2023/06/16 08:41:06;;;;;;;6.25;2.90;;;29.10;70.90;;;;;;5090861;28;20051;-69
2023/06/16 08:44:14;;;;;;;16.10;3.10;;;29.00;71.00;;;;;;5090952;28;20043;-69
2023/06/16 08:47:17;;;;;;;8.00;3.47;;;28.40;71.10;;;;;;5091424;28;20145;-68
2023/06/16 08:50:23;;;;;;;5.25;2.95;;;28.40;72.10;;;;;;5090897;28;20047;-71
2023/06/16 08:53:31;;;;;;;5.03;3.17;;;28.10;71.30;;;;;;5091490;28;20047;-81
2023/06/16 08:56:36;;;;;;;5.50;3.05;;;27.80;72.00;;;;;;5090944;28;20041;-78
2023/06/16 08:59:44;;;;;;;10.82;3.00;;;27.90;73.30;;;;;;5090903;28;20046;-77
2023/06/16 09:02:48;;;;;;;7.47;3.20;;;28.00;72.50;;;;;;5091040;28;20392;-79
2023/06/16 09:05:53;;;;;;;9.88;3.45;;;28.00;71.50;;;;;;5090924;28;20479;-81
2023/06/16 09:08:56;;;;;;;4.70;3.10;;;27.90;72.30;;;;;;5091222;28;20055;-73
2023/06/16 09:12:07;;;;;;;5.05;3.08;;;27.90;71.90;;;;;;5090958;28;20043;-76
2023/06/16 09:15:11;;;;;;;6.10;3.28;;;27.90;73.20;;;;;;5078775;28;20035;-80
2023/06/16 09:18:16;;;;;;;7.88;3.45;;;28.10;72.60;;;;;;5090865;28;20047;-80
2023/06/16 09:21:23;;;;;;;3.45;2.88;;;28.40;73.10;;;;;;5078463;28;20051;-77
2023/06/16 09:24:28;;;;;;;4.75;3.03;;;28.70;72.10;;;;;;5090848;28;20396;-78
2023/06/16 09:27:50;;;;;;;5.32;3.03;;;28.60;71.80;;;;;;5091105;28;20051;-77
2023/06/16 09:31:02;;;;;;;4.97;3.38;;;28.50;72.00;;;;;;5090491;28;20067;-76
2023/06/16 09:34:06;;;;;;;6.97;3.50;;;28.50;74.10;;;;;;5090440;28;20043;-74
2023/06/16 09:37:10;;;;;;;4.50;2.83;;;28.60;75.10;;;;;;5090772;28;20424;-78
2023/06/16 09:40:15;;;;;;;4.30;2.90;;;28.30;72.70;;;;;;5090645;28;20059;-76
2023/06/16 09:43:19;;;;;;;6.25;3.20;;;28.30;73.40;;;;;;5077452;28;20594;-74
2023/06/16 09:46:24;;;;;;;8.75;3.20;;;28.40;71.80;;;;;;5090523;28;20403;-75
2023/06/16 09:49:28;;;;;;;5.20;3.17;;;28.60;72.90;;;;;;5091522;28;20495;-75
2023/06/16 09:52:34;;;;;;;5.28;2.90;;;28.80;72.50;;;;;;5094291;28;20051;-71
2023/06/16 09:55:40;;;;;;;3.72;3.00;;;28.90;70.90;;;;;;5094533;28;20047;-78
2023/06/16 09:58:46;;;;;;;5.95;3.25;;;29.00;70.40;;;;;;5094115;28;20050;-74
2023/06/16 10:01:54;;;;;;;5.88;3.05;;;29.10;69.80;;;;;;5093609;28;20054;-77
2023/06/16 10:05:02;;;;;;;3.88;3.00;;;29.00;71.10;;;;;;5094202;28;20047;-79
2023/06/16 10:08:07;;;;;;;11.82;3.30;;;28.90;71.70;;;;;;5081827;28;20051;-76
2023/06/16 10:11:17;;;;;;;4.45;3.25;;;28.70;70.60;;;;;;5094220;28;20494;-78
2023/06/16 10:14:25;;;;;;;6.32;3.30;;;28.50;72.10;;;;;;5094463;28;20451;-81
2023/06/16 10:17:32;;;;;;;6.72;2.72;;;28.30;71.60;;;;;;5093773;28;20415;-85
2023/06/16 10:20:37;;;;;;;4.65;3.28;;;28.20;71.50;;;;;;5094016;28;20046;-81
2023/06/16 10:23:41;;;;;;;4.32;3.33;;;28.10;71.90;;;;;;5094094;28;20039;-86
2023/06/16 10:26:46;;;;;;;7.38;4.00;;;28.10;70.20;;;;;;5081272;28;20047;-76
2023/06/16 10:29:51;;;;;;;4.25;3.30;;;28.00;71.40;;;;;;5094292;28;20039;-76
2023/06/16 10:32:58;;;;;;;6.10;3.25;;;28.10;72.70;;;;;;5093857;28;20047;-80
2023/06/16 10:36:02;;;;;;;9.57;3.70;;;28.10;70.00;;;;;;5093957;28;20047;-78
2023/06/16 10:39:07;;;;;;;4.57;3.38;;;28.20;69.50;;;;;;5093145;28;20047;-72
2023/06/16 10:42:13;;;;;;;4.22;2.90;;;28.00;69.30;;;;;;5080786;28;20047;-82
2023/06/16 10:45:24;;;;;;;4.38;2.95;;;27.90;70.50;;;;;;5094034;28;20047;-75
2023/06/16 10:48:57;;;;;;;7.47;3.70;;;28.00;71.40;;;;;;5093638;28;20055;-81
2023/06/16 10:52:02;;;;;;;10.40;3.90;;;28.20;71.90;;;;;;5093841;28;20418;-87
2023/06/16 10:55:33;;;;;;;6.78;3.30;;;28.20;70.50;;;;;;5093551;28;20043;-78
2023/06/16 10:58:37;;;;;;;6.57;3.40;;;28.30;70.90;;;;;;5093751;28;20042;-71
2023/06/16 11:01:46;;;;;;;8.10;3.42;;;28.30;69.10;;;;;;5091538;28;20055;-70
2023/06/16 11:05:13;;;;;;;6.18;3.08;;;28.30;70.10;;;;;;5091306;28;20039;-71
2023/06/16 11:08:17;;;;;;;3.45;2.88;;;28.30;70.60;;;;;;5092131;28;20047;-71
2023/06/16 11:11:21;;;;;;;6.68;3.60;;;28.40;70.60;;;;;;5092406;28;20043;-71
2023/06/16 11:14:26;;;;;;;5.68;3.20;;;28.50;69.60;;;;;;5092631;28;20043;-70
2023/06/16 11:17:32;;;;;;;7.78;3.60;;;28.50;71.10;;;;;;5092597;28;20051;-70
2023/06/16 11:20:36;;;;;;;3.88;3.42;;;28.60;68.50;;;;;;5092455;28;20511;-70
2023/06/16 11:23:43;;;;;;;5.07;3.00;;;28.50;69.40;;;;;;5092394;28;20395;-70
2023/06/16 11:26:47;;;;;;;5.53;2.65;;;28.50;70.10;;;;;;5092424;28;20043;-71
2023/06/16 11:29:56;;;;;;;8.05;3.38;;;28.50;68.90;;;;;;5092310;28;20491;-71
2023/06/16 11:33:01;;;;;;;5.47;3.45;;;28.50;67.90;;;;;;5092199;28;20067;-69
2023/06/16 11:36:16;;;;;;;6.88;3.30;;;28.50;69.20;;;;;;5092621;28;20051;-71
2023/06/16 11:39:20;;;;;;;4.88;3.33;;;28.40;67.40;;;;;;5092234;28;20043;-70
2023/06/16 11:42:23;;;;;;;6.85;3.55;;;28.40;68.40;;;;;;5091949;28;20048;-71
2023/06/16 11:45:30;;;;;;;4.30;3.17;;;28.40;67.20;;;;;;5079835;28;20043;-71
2023/06/16 11:48:34;;;;;;;4.10;2.95;;;28.40;68.00;;;;;;5092125;28;20054;-72
2023/06/16 11:51:38;;;;;;;3.80;2.90;;;28.50;69.80;;;;;;5092043;28;20391;-71
2023/06/16 11:54:42;;;;;;;3.83;3.40;;;28.60;68.20;;;;;;5092076;28;20043;-71
2023/06/16 11:57:46;;;;;;;5.20;3.00;;;28.60;68.60;;;;;;5092151;28;20395;-71
2023/06/16 12:00:51;;;;;;;6.05;3.53;;;28.60;68.60;;;;;;5091755;28;20534;-70
2023/06/16 12:03:56;;;;;;;5.20;3.30;;;28.60;67.30;;;;;;5091612;28;20047;-71
2023/06/16 12:07:02;;;;;;;4.40;3.33;;;28.60;68.50;;;;;;5079353;28;20055;-68
2023/06/16 12:10:07;;;;;;;5.63;3.08;;;28.60;69.40;;;;;;5091442;28;20506;-70
2023/06/16 12:13:11;;;;;;;5.65;2.95;;;28.60;69.70;;;;;;5091130;28;20043;-70
2023/06/16 12:16:15;;;;;;;4.20;3.08;;;28.60;69.20;;;;;;5091505;28;20047;-70
2023/06/16 12:19:20;;;;;;;4.38;3.38;;;28.60;69.90;;;;;;5091809;28;20051;-74
2023/06/16 12:22:35;;;;;;;4.00;3.10;;;28.60;67.80;;;;;;5090283;28;20059;-70
2023/06/16 12:25:40;;;;;;;5.85;2.85;;;28.50;68.40;;;;;;5091674;28;20498;-71
2023/06/16 12:28:45;;;;;;;5.30;3.25;;;28.50;69.60;;;;;;5091512;28;20055;-71
2023/06/16 12:31:51;;;;;;;3.45;2.90;;;28.50;68.70;;;;;;5078464;28;20396;-70
2023/06/16 12:34:54;;;;;;;5.43;3.22;;;28.40;66.80;;;;;;5091516;28;20051;-69
2023/06/16 12:37:58;;;;;;;5.13;3.75;;;28.40;67.50;;;;;;5091402;28;20047;-77
2023/06/16 12:41:02;;;;;;;9.65;3.58;;;28.40;66.50;;;;;;5091625;28;20051;-78
2023/06/16 12:44:06;;;;;;;6.13;3.50;;;28.30;68.60;;;;;;5091545;28;20040;-82
2023/06/16 12:47:16;;;;;;;4.00;2.88;;;28.40;69.40;;;;;;5091418;28;20471;-83
2023/06/16 12:50:20;;;;;;;3.53;2.70;;;28.30;69.60;;;;;;5091091;28;20047;-85
2023/06/16 12:53:24;;;;;;;5.15;3.35;;;28.30;69.80;;;;;;5091345;28;20039;-85
2023/06/16 12:56:28;;;;;;;5.65;3.20;;;28.30;69.20;;;;;;5091301;28;20051;-83
2023/06/16 12:59:32;;;;;;;8.80;3.50;;;28.20;67.60;;;;;;5091053;28;20039;-84
2023/06/16 13:02:36;;;;;;;5.35;3.20;;;28.20;68.10;;;;;;5091134;28;20051;-83
2023/06/16 13:05:40;;;;;;;5.95;3.42;;;28.10;69.00;;;;;;5091188;28;20063;-82
2023/06/16 13:08:46;;;;;;;7.50;3.75;;;28.00;72.10;;;;;;5091400;28;20194;-79
2023/06/16 13:11:54;;;;;;;6.63;3.40;;;28.00;69.90;;;;;;5091547;28;20074;-82
2023/06/16 13:14:58;;;;;;;4.97;3.40;;;27.90;70.70;;;;;;5091314;28;20055;-81
2023/06/16 13:18:03;;;;;;;4.25;3.20;;;27.90;71.20;;;;;;5091162;28;20043;-78
2023/06/16 13:21:07;;;;;;;4.13;3.25;;;28.00;70.60;;;;;;5090802;28;20047;-78
2023/06/16 13:24:12;;;;;;;3.33;2.80;;;28.00;69.50;;;;;;5093217;28;20043;-79
2023/06/16 13:27:16;;;;;;;7.65;3.95;;;28.00;71.00;;;;;;5095435;28;20051;-79
2023/06/16 13:30:20;;;;;;;4.35;3.92;;;28.00;72.00;;;;;;5094923;28;20046;-77
2023/06/16 13:33:24;;;;;;;8.18;5.07;;;28.00;74.70;;;;;;5094980;28;20043;-80
2023/06/16 13:36:27;;;;;;;7.97;4.55;;;28.00;76.50;;;;;;5095141;28;20502;-77
2023/06/16 13:39:31;;;;;;;5.53;3.72;;;28.00;77.70;;;;;;5094859;28;20374;-74
2023/06/16 13:42:35;;;;;;;6.60;4.18;;;27.90;77.60;;;;;;5081855;28;20075;-74
2023/06/16 13:45:39;;;;;;;5.63;3.97;;;27.90;76.10;;;;;;5095383;28;20054;-88
2023/06/16 13:48:44;;;;;;;5.57;3.60;;;27.90;77.00;;;;;;5094697;28;20055;-85
2023/06/16 13:51:48;;;;;;;8.82;4.15;;;27.90;77.80;;;;;;5095182;28;20125;-83
2023/06/16 13:54:52;;;;;;;4.85;3.85;;;27.80;77.30;;;;;;5094950;28;20062;-83
2023/06/16 13:57:56;;;;;;;7.05;3.90;;;27.90;79.20;;;;;;5094561;28;20043;-79
2023/06/16 14:01:00;;;;;;;6.25;3.97;;;27.90;78.60;;;;;;5094654;28;20059;-83
2023/06/16 14:04:05;;;;;;;6.00;3.90;;;27.90;78.20;;;;;;5094994;28;20506;-79
2023/06/16 14:07:08;;;;;;;7.78;4.78;;;27.90;76.50;;;;;;5094719;28;20290;-80
2023/06/16 14:10:15;;;;;;;5.72;4.53;;;27.80;78.00;;;;;;5094428;28;20542;-79
2023/06/16 14:13:19;;;;;;;8.90;4.82;;;27.80;78.80;;;;;;5094688;28;20051;-80
2023/06/16 14:16:23;;;;;;;5.63;3.50;;;27.70;79.10;;;;;;5094346;28;20039;-82
2023/06/16 14:19:27;;;;;;;6.38;4.35;;;27.70;79.80;;;;;;5094560;28;20047;-86
2023/06/16 14:22:31;;;;;;;5.43;3.95;;;27.80;79.10;;;;;;5094045;28;20522;-74
2023/06/16 14:25:35;;;;;;;4.68;3.55;;;27.90;79.30;;;;;;5094204;28;20035;-85
2023/06/16 14:28:39;;;;;;;11.95;4.20;;;27.90;78.50;;;;;;5093911;28;20102;-82
2023/06/16 14:31:43;;;;;;;8.38;3.60;;;28.00;78.20;;;;;;5093615;28;20395;-78
2023/06/16 14:34:46;;;;;;;9.38;3.97;;;28.00;78.50;;;;;;5092911;28;20214;-77
2023/06/16 14:37:51;;;;;;;4.97;4.38;;;28.10;77.00;;;;;;5093855;28;20526;-78
2023/06/16 14:40:54;;;;;;;5.95;3.80;;;28.20;78.50;;;;;;5080657;28;20079;-85
2023/06/16 14:43:58;;;;;;;7.50;3.70;;;28.20;78.00;;;;;;5093530;28;20047;-74
2023/06/16 14:47:02;;;;;;;5.60;4.60;;;28.20;77.70;;;;;;5093630;28;20062;-74
2023/06/16 14:50:07;;;;;;;6.57;4.45;;;28.20;77.30;;;;;;5093427;28;20051;-71
2023/06/16 14:53:11;;;;;;;5.80;3.55;;;28.20;78.20;;;;;;5093169;28;20047;-72
2023/06/16 14:56:15;;;;;;;4.20;3.80;;;28.10;77.60;;;;;;5093081;28;20058;-72
2023/06/16 14:59:19;;;;;;;7.30;4.10;;;28.10;78.40;;;;;;5093914;28;20043;-86
2023/06/16 15:02:23;;;;;;;10.40;4.53;;;28.10;77.80;;;;;;5093496;28;20066;-77
2023/06/16 15:05:27;;;;;;;12.13;4.45;;;28.00;76.10;;;;;;5093128;28;20074;-82
2023/06/16 15:08:31;;;;;;;9.60;4.30;;;27.90;77.40;;;;;;5092925;28;20046;-75
2023/06/16 15:11:35;;;;;;;5.88;4.30;;;27.90;77.50;;;;;;5093074;28;20047;-82
2023/06/16 15:14:39;;;;;;;4.55;3.78;;;27.80;78.00;;;;;;5093006;28;20054;-83
2023/06/16 15:17:42;;;;;;;6.95;4.30;;;27.80;78.80;;;;;;5093126;28;20396;-76
2023/06/16 15:20:47;;;;;;;9.10;4.43;;;27.70;78.90;;;;;;5092405;28;20460;-76
2023/06/16 15:23:51;;;;;;;6.57;3.88;;;27.70;79.60;;;;;;5092878;28;20141;-74
2023/06/16 15:26:55;;;;;;;6.25;4.03;;;27.70;80.00;;;;;;5092206;28;20368;-80
2023/06/16 15:29:59;;;;;;;10.07;4.60;;;27.70;79.50;;;;;;5092712;28;20047;-80
2023/06/16 15:33:03;;;;;;;5.28;4.30;;;27.70;80.30;;;;;;5092310;28;20059;-79
2023/06/16 15:36:08;;;;;;;6.45;4.47;;;27.70;80.50;;;;;;5092470;28;20035;-81
2023/06/16 15:39:12;;;;;;;8.45;3.90;;;27.70;80.00;;;;;;5092736;28;20395;-82
2023/06/16 15:42:17;;;;;;;7.50;3.50;;;27.70;78.80;;;;;;5092286;28;20396;-75
2023/06/16 15:45:20;;;;;;;6.95;3.90;;;27.60;78.20;;;;;;5092350;28;20415;-81
2023/06/16 15:48:24;;;;;;;6.97;4.10;;;27.60;78.20;;;;;;5091442;28;20055;-75
2023/06/16 15:51:29;;;;;;;5.20;4.15;;;27.60;78.70;;;;;;5091985;28;20035;-76
2023/06/16 15:54:33;;;;;;;5.72;3.47;;;27.60;79.90;;;;;;5092130;28;20047;-78